REU109 FMEE-FIMP
Flight info
| Callsign | REU109 |
|---|---|
| Flight time | N/A |
| Altitude | 19000 |
| Route | EPTEK2J EPTEK EPTEK2F |
| Aircraft | B77W/H-SDE1E2E3FGHIJ2J3J4J5M1RWXY/LB1D1 |
Departure
| Time | N/A |
|---|---|
| Airport | Roland Garros Airport (FMEE) |
Arrival
| Time | 2026-05-04 00:07 |
|---|---|
| Airport | Sir Seewoosagur Ramgoolam International Airport (FIMP) |
| Time | Latitude | Longitude | Altitude | Speed | Heading |
|---|---|---|---|---|---|
| 2026-05-04 00:07 | -20.42691 | 57.67475 | 204 ft | 8 kts | 171° |
| 2026-05-04 00:07 | -20.42744 | 57.67501 | 201 ft | 10 kts | 140° |
| 2026-05-04 00:07 | -20.42803 | 57.67554 | 198 ft | 11 kts | 142° |
| 2026-05-04 00:07 | -20.42854 | 57.67607 | 196 ft | 10 kts | 124° |
| 2026-05-04 00:08 | -20.42887 | 57.67672 | 197 ft | 9 kts | 116° |
| 2026-05-04 00:08 | -20.42917 | 57.67733 | 197 ft | 9 kts | 117° |
| 2026-05-04 00:08 | -20.42947 | 57.67795 | 196 ft | 10 kts | 117° |
| 2026-05-04 00:08 | -20.42981 | 57.67863 | 195 ft | 11 kts | 117° |
| 2026-05-04 00:09 | -20.43020 | 57.67946 | 191 ft | 14 kts | 116° |
| 2026-05-04 00:09 | -20.43063 | 57.68036 | 187 ft | 13 kts | 116° |
| 2026-05-04 00:09 | -20.43090 | 57.68091 | 184 ft | 5 kts | 121° |
| 2026-05-04 00:09 | -20.43114 | 57.68111 | 184 ft | 4 kts | 169° |
| 2026-05-04 00:10 | -20.43141 | 57.68103 | 184 ft | 3 kts | 210° |
| 2026-05-04 00:10 | -20.43157 | 57.68089 | 185 ft | 2 kts | 233° |
| 2026-05-04 00:10 | -20.43163 | 57.68069 | 185 ft | 2 kts | 268° |
| 2026-05-04 00:10 | -20.43158 | 57.68050 | 186 ft | 3 kts | 297° |
| 2026-05-04 00:11 | -20.43146 | 57.68027 | 187 ft | 3 kts | 297° |
| 2026-05-04 00:11 | -20.43139 | 57.68008 | 188 ft | 1 kts | 279° |
| 2026-05-04 00:11 | -20.43139 | 57.67997 | 188 ft | 1 kts | 259° |
| 2026-05-04 00:11 | -20.43147 | 57.67976 | 189 ft | 4 kts | 242° |
| 2026-05-04 00:12 | -20.43168 | 57.67948 | 192 ft | 5 kts | 227° |
| 2026-05-04 00:12 | -20.43191 | 57.67924 | 193 ft | 2 kts | 225° |
| 2026-05-04 00:12 | -20.43200 | 57.67915 | 194 ft | 0 kts | 225° |
| 2026-05-04 00:12 | -20.43203 | 57.67911 | 194 ft | 0 kts | 225° |